sensor_id;sensor_type;location;lat;lon;timestamp;P1;durP1;ratioP1;P2;durP2;ratioP2
3149;SDS011;32503;47.748;8.960;2024-02-21T00:01:13;4.43;;;4.10;;
3149;SDS011;32503;47.748;8.960;2024-02-21T00:03:43;4.40;;;4.10;;
3149;SDS011;32503;47.748;8.960;2024-02-21T00:06:10;4.73;;;4.30;;
3149;SDS011;32503;47.748;8.960;2024-02-21T00:08:37;3.90;;;3.57;;
3149;SDS011;32503;47.748;8.960;2024-02-21T00:11:04;5.30;;;4.90;;
3149;SDS011;32503;47.748;8.960;2024-02-21T00:13:31;4.47;;;4.17;;
3149;SDS011;32503;47.748;8.960;2024-02-21T00:15:59;5.00;;;4.60;;
3149;SDS011;32503;47.748;8.960;2024-02-21T00:18:27;15.43;;;5.80;;
3149;SDS011;32503;47.748;8.960;2024-02-21T00:20:55;5.37;;;4.90;;
3149;SDS011;32503;47.748;8.960;2024-02-21T00:23:22;5.10;;;4.60;;
3149;SDS011;32503;47.748;8.960;2024-02-21T00:25:49;5.23;;;4.70;;
3149;SDS011;32503;47.748;8.960;2024-02-21T00:28:16;4.30;;;4.00;;
3149;SDS011;32503;47.748;8.960;2024-02-21T00:30:44;5.63;;;4.83;;
3149;SDS011;32503;47.748;8.960;2024-02-21T00:33:13;4.07;;;3.87;;
3149;SDS011;32503;47.748;8.960;2024-02-21T00:35:40;4.03;;;3.73;;
3149;SDS011;32503;47.748;8.960;2024-02-21T00:38:08;7.90;;;5.83;;
3149;SDS011;32503;47.748;8.960;2024-02-21T00:40:35;6.53;;;4.80;;
3149;SDS011;32503;47.748;8.960;2024-02-21T00:43:03;6.10;;;5.70;;
3149;SDS011;32503;47.748;8.960;2024-02-21T00:45:30;4.43;;;4.23;;
3149;SDS011;32503;47.748;8.960;2024-02-21T00:47:57;6.97;;;5.53;;
3149;SDS011;32503;47.748;8.960;2024-02-21T00:50:24;13.03;;;5.03;;
3149;SDS011;32503;47.748;8.960;2024-02-21T00:52:51;6.63;;;5.13;;
3149;SDS011;32503;47.748;8.960;2024-02-21T00:55:19;7.77;;;5.60;;
3149;SDS011;32503;47.748;8.960;2024-02-21T00:57:46;9.20;;;6.00;;
3149;SDS011;32503;47.748;8.960;2024-02-21T01:00:13;7.50;;;5.13;;
3149;SDS011;32503;47.748;8.960;2024-02-21T01:02:41;5.10;;;4.70;;
3149;SDS011;32503;47.748;8.960;2024-02-21T01:05:08;9.23;;;5.37;;
3149;SDS011;32503;47.748;8.960;2024-02-21T01:07:35;6.83;;;6.20;;
3149;SDS011;32503;47.748;8.960;2024-02-21T01:10:02;5.77;;;5.27;;
3149;SDS011;32503;47.748;8.960;2024-02-21T01:12:32;9.40;;;5.30;;
3149;SDS011;32503;47.748;8.960;2024-02-21T01:14:59;4.43;;;4.13;;
3149;SDS011;32503;47.748;8.960;2024-02-21T01:17:26;6.97;;;5.60;;
3149;SDS011;32503;47.748;8.960;2024-02-21T01:19:53;4.47;;;4.20;;
3149;SDS011;32503;47.748;8.960;2024-02-21T01:22:20;9.93;;;5.73;;
3149;SDS011;32503;47.748;8.960;2024-02-21T01:24:47;5.93;;;5.53;;
3149;SDS011;32503;47.748;8.960;2024-02-21T01:27:14;5.50;;;4.30;;
3149;SDS011;32503;47.748;8.960;2024-02-21T01:29:43;4.67;;;4.20;;
3149;SDS011;32503;47.748;8.960;2024-02-21T01:32:11;7.70;;;4.30;;
3149;SDS011;32503;47.748;8.960;2024-02-21T01:34:38;5.80;;;4.90;;
3149;SDS011;32503;47.748;8.960;2024-02-21T01:37:05;5.70;;;5.20;;
3149;SDS011;32503;47.748;8.960;2024-02-21T01:39:32;7.03;;;4.67;;
3149;SDS011;32503;47.748;8.960;2024-02-21T01:42:00;6.73;;;4.60;;
3149;SDS011;32503;47.748;8.960;2024-02-21T01:44:27;5.30;;;4.33;;
3149;SDS011;32503;47.748;8.960;2024-02-21T01:46:56;5.77;;;4.40;;
3149;SDS011;32503;47.748;8.960;2024-02-21T01:49:23;4.70;;;4.30;;
3149;SDS011;32503;47.748;8.960;2024-02-21T01:51:50;4.20;;;3.77;;
3149;SDS011;32503;47.748;8.960;2024-02-21T01:54:16;5.17;;;4.50;;
3149;SDS011;32503;47.748;8.960;2024-02-21T01:56:44;10.93;;;5.50;;
3149;SDS011;32503;47.748;8.960;2024-02-21T01:59:13;4.53;;;4.23;;
3149;SDS011;32503;47.748;8.960;2024-02-21T02:01:42;5.27;;;4.77;;
3149;SDS011;32503;47.748;8.960;2024-02-21T02:04:11;4.70;;;4.37;;
3149;SDS011;32503;47.748;8.960;2024-02-21T02:06:39;5.17;;;4.77;;
3149;SDS011;32503;47.748;8.960;2024-02-21T02:09:07;5.13;;;4.83;;
3149;SDS011;32503;47.748;8.960;2024-02-21T02:11:34;6.40;;;4.97;;
3149;SDS011;32503;47.748;8.960;2024-02-21T02:14:02;7.03;;;5.07;;
3149;SDS011;32503;47.748;8.960;2024-02-21T02:16:29;5.33;;;4.83;;
3149;SDS011;32503;47.748;8.960;2024-02-21T02:18:56;5.20;;;4.30;;
3149;SDS011;32503;47.748;8.960;2024-02-21T02:21:26;4.70;;;4.30;;
3149;SDS011;32503;47.748;8.960;2024-02-21T02:23:57;5.33;;;4.93;;
3149;SDS011;32503;47.748;8.960;2024-02-21T02:26:25;5.10;;;4.53;;
3149;SDS011;32503;47.748;8.960;2024-02-21T02:28:53;5.23;;;4.70;;
3149;SDS011;32503;47.748;8.960;2024-02-21T02:31:20;11.27;;;5.30;;
3149;SDS011;32503;47.748;8.960;2024-02-21T02:33:47;9.93;;;5.43;;
3149;SDS011;32503;47.748;8.960;2024-02-21T02:36:15;4.63;;;4.40;;
3149;SDS011;32503;47.748;8.960;2024-02-21T02:38:42;5.20;;;4.73;;
3149;SDS011;32503;47.748;8.960;2024-02-21T02:41:11;4.67;;;4.27;;
3149;SDS011;32503;47.748;8.960;2024-02-21T02:43:38;5.43;;;4.70;;
3149;SDS011;32503;47.748;8.960;2024-02-21T02:46:05;4.83;;;4.43;;
3149;SDS011;32503;47.748;8.960;2024-02-21T02:48:32;7.57;;;5.30;;
3149;SDS011;32503;47.748;8.960;2024-02-21T02:50:59;8.70;;;6.00;;
3149;SDS011;32503;47.748;8.960;2024-02-21T02:53:26;5.30;;;4.90;;
3149;SDS011;32503;47.748;8.960;2024-02-21T02:55:53;8.23;;;4.23;;
3149;SDS011;32503;47.748;8.960;2024-02-21T02:58:22;6.30;;;5.23;;
3149;SDS011;32503;47.748;8.960;2024-02-21T03:00:49;7.63;;;4.90;;
3149;SDS011;32503;47.748;8.960;2024-02-21T03:03:16;5.20;;;4.80;;
3149;SDS011;32503;47.748;8.960;2024-02-21T03:05:43;8.50;;;4.33;;
3149;SDS011;32503;47.748;8.960;2024-02-21T03:08:10;8.37;;;5.40;;
3149;SDS011;32503;47.748;8.960;2024-02-21T03:10:37;4.87;;;4.57;;
3149;SDS011;32503;47.748;8.960;2024-02-21T03:13:04;4.27;;;3.90;;
3149;SDS011;32503;47.748;8.960;2024-02-21T03:15:33;7.00;;;5.20;;
3149;SDS011;32503;47.748;8.960;2024-02-21T03:18:00;4.70;;;4.40;;
3149;SDS011;32503;47.748;8.960;2024-02-21T03:20:27;5.70;;;5.20;;
3149;SDS011;32503;47.748;8.960;2024-02-21T03:22:54;8.10;;;4.97;;
3149;SDS011;32503;47.748;8.960;2024-02-21T03:25:21;4.90;;;4.47;;
3149;SDS011;32503;47.748;8.960;2024-02-21T03:27:48;4.80;;;4.37;;
3149;SDS011;32503;47.748;8.960;2024-02-21T03:30:15;5.53;;;4.97;;
3149;SDS011;32503;47.748;8.960;2024-02-21T03:32:44;6.07;;;4.97;;
3149;SDS011;32503;47.748;8.960;2024-02-21T03:35:11;5.60;;;4.70;;
3149;SDS011;32503;47.748;8.960;2024-02-21T03:37:38;6.13;;;5.27;;
3149;SDS011;32503;47.748;8.960;2024-02-21T03:40:06;4.90;;;4.50;;
3149;SDS011;32503;47.748;8.960;2024-02-21T03:42:35;5.77;;;5.23;;
3149;SDS011;32503;47.748;8.960;2024-02-21T03:45:02;5.53;;;5.07;;
3149;SDS011;32503;47.748;8.960;2024-02-21T03:47:30;4.63;;;4.23;;
3149;SDS011;32503;47.748;8.960;2024-02-21T03:49:58;5.23;;;4.83;;
3149;SDS011;32503;47.748;8.960;2024-02-21T03:52:25;5.43;;;5.00;;
3149;SDS011;32503;47.748;8.960;2024-02-21T03:54:52;5.77;;;5.00;;
3149;SDS011;32503;47.748;8.960;2024-02-21T03:57:20;5.63;;;5.03;;
3149;SDS011;32503;47.748;8.960;2024-02-21T03:59:49;5.57;;;4.90;;
3149;SDS011;32503;47.748;8.960;2024-02-21T04:02:17;6.33;;;5.27;;
3149;SDS011;32503;47.748;8.960;2024-02-21T04:04:44;4.93;;;4.63;;
3149;SDS011;32503;47.748;8.960;2024-02-21T04:07:14;7.17;;;5.23;;
3149;SDS011;32503;47.748;8.960;2024-02-21T04:09:41;5.03;;;4.63;;
3149;SDS011;32503;47.748;8.960;2024-02-21T04:12:08;11.40;;;4.90;;
3149;SDS011;32503;47.748;8.960;2024-02-21T04:14:35;7.40;;;5.27;;
3149;SDS011;32503;47.748;8.960;2024-02-21T04:17:04;6.73;;;5.80;;
3149;SDS011;32503;47.748;8.960;2024-02-21T04:19:32;5.70;;;4.73;;
3149;SDS011;32503;47.748;8.960;2024-02-21T04:21:59;4.57;;;4.20;;
3149;SDS011;32503;47.748;8.960;2024-02-21T04:24:28;5.97;;;5.40;;
3149;SDS011;32503;47.748;8.960;2024-02-21T04:26:55;6.83;;;5.23;;
3149;SDS011;32503;47.748;8.960;2024-02-21T04:29:22;5.87;;;5.47;;
3149;SDS011;32503;47.748;8.960;2024-02-21T04:31:49;5.53;;;5.07;;
3149;SDS011;32503;47.748;8.960;2024-02-21T04:34:16;5.97;;;5.47;;
3149;SDS011;32503;47.748;8.960;2024-02-21T04:36:43;5.20;;;4.77;;
3149;SDS011;32503;47.748;8.960;2024-02-21T04:39:10;5.60;;;5.03;;
3149;SDS011;32503;47.748;8.960;2024-02-21T04:41:39;7.13;;;5.53;;
3149;SDS011;32503;47.748;8.960;2024-02-21T04:44:06;10.13;;;5.50;;
3149;SDS011;32503;47.748;8.960;2024-02-21T04:46:34;5.10;;;4.70;;
3149;SDS011;32503;47.748;8.960;2024-02-21T04:49:00;5.57;;;5.07;;
3149;SDS011;32503;47.748;8.960;2024-02-21T04:51:27;5.57;;;5.07;;
3149;SDS011;32503;47.748;8.960;2024-02-21T04:53:54;5.37;;;4.43;;
3149;SDS011;32503;47.748;8.960;2024-02-21T04:56:21;6.33;;;5.60;;
3149;SDS011;32503;47.748;8.960;2024-02-21T04:58:50;5.20;;;4.90;;
3149;SDS011;32503;47.748;8.960;2024-02-21T05:01:17;5.70;;;5.10;;
3149;SDS011;32503;47.748;8.960;2024-02-21T05:03:44;6.73;;;6.10;;
3149;SDS011;32503;47.748;8.960;2024-02-21T05:06:11;9.43;;;6.63;;
3149;SDS011;32503;47.748;8.960;2024-02-21T05:08:38;8.60;;;7.07;;
3149;SDS011;32503;47.748;8.960;2024-02-21T05:11:06;9.27;;;7.40;;
3149;SDS011;32503;47.748;8.960;2024-02-21T05:13:33;10.30;;;6.80;;
3149;SDS011;32503;47.748;8.960;2024-02-21T05:16:01;8.50;;;6.00;;
3149;SDS011;32503;47.748;8.960;2024-02-21T05:18:29;9.77;;;8.33;;
3149;SDS011;32503;47.748;8.960;2024-02-21T05:20:56;7.77;;;7.17;;
3149;SDS011;32503;47.748;8.960;2024-02-21T05:23:23;9.37;;;7.07;;
3149;SDS011;32503;47.748;8.960;2024-02-21T05:25:50;7.50;;;5.93;;
3149;SDS011;32503;47.748;8.960;2024-02-21T05:28:17;6.40;;;5.80;;
3149;SDS011;32503;47.748;8.960;2024-02-21T05:30:45;8.23;;;5.40;;
3149;SDS011;32503;47.748;8.960;2024-02-21T05:33:13;7.33;;;6.60;;
3149;SDS011;32503;47.748;8.960;2024-02-21T05:35:46;7.47;;;6.87;;
3149;SDS011;32503;47.748;8.960;2024-02-21T05:38:13;8.03;;;7.27;;
3149;SDS011;32503;47.748;8.960;2024-02-21T05:40:40;7.40;;;6.33;;
3149;SDS011;32503;47.748;8.960;2024-02-21T05:43:08;11.30;;;7.97;;
3149;SDS011;32503;47.748;8.960;2024-02-21T05:45:35;6.80;;;6.10;;
3149;SDS011;32503;47.748;8.960;2024-02-21T05:48:02;8.30;;;5.23;;
3149;SDS011;32503;47.748;8.960;2024-02-21T05:50:32;5.77;;;5.00;;
3149;SDS011;32503;47.748;8.960;2024-02-21T05:52:59;5.97;;;5.47;;
3149;SDS011;32503;47.748;8.960;2024-02-21T05:55:26;6.77;;;6.17;;
3149;SDS011;32503;47.748;8.960;2024-02-21T05:57:53;6.70;;;5.63;;
3149;SDS011;32503;47.748;8.960;2024-02-21T06:00:21;7.10;;;6.00;;
3149;SDS011;32503;47.748;8.960;2024-02-21T06:02:48;8.00;;;5.73;;
3149;SDS011;32503;47.748;8.960;2024-02-21T06:05:15;11.50;;;7.53;;
3149;SDS011;32503;47.748;8.960;2024-02-21T06:07:44;8.57;;;5.87;;
3149;SDS011;32503;47.748;8.960;2024-02-21T06:10:11;7.43;;;5.67;;
3149;SDS011;32503;47.748;8.960;2024-02-21T06:12:38;8.67;;;5.20;;
3149;SDS011;32503;47.748;8.960;2024-02-21T06:15:06;5.43;;;4.80;;
3149;SDS011;32503;47.748;8.960;2024-02-21T06:17:33;6.47;;;5.87;;
3149;SDS011;32503;47.748;8.960;2024-02-21T06:20:00;9.87;;;6.40;;
3149;SDS011;32503;47.748;8.960;2024-02-21T06:22:28;8.07;;;6.97;;
3149;SDS011;32503;47.748;8.960;2024-02-21T06:24:57;8.10;;;7.30;;
3149;SDS011;32503;47.748;8.960;2024-02-21T06:27:24;6.97;;;6.30;;
3149;SDS011;32503;47.748;8.960;2024-02-21T06:29:51;6.77;;;6.10;;
3149;SDS011;32503;47.748;8.960;2024-02-21T06:32:18;7.07;;;6.50;;
3149;SDS011;32503;47.748;8.960;2024-02-21T06:34:45;7.43;;;6.80;;
3149;SDS011;32503;47.748;8.960;2024-02-21T06:37:12;7.03;;;6.10;;
3149;SDS011;32503;47.748;8.960;2024-02-21T06:39:39;6.60;;;5.90;;
3149;SDS011;32503;47.748;8.960;2024-02-21T06:42:08;6.77;;;5.93;;
3149;SDS011;32503;47.748;8.960;2024-02-21T06:44:35;7.20;;;6.27;;
3149;SDS011;32503;47.748;8.960;2024-02-21T06:47:05;9.53;;;6.37;;
3149;SDS011;32503;47.748;8.960;2024-02-21T06:49:34;5.87;;;5.37;;
3149;SDS011;32503;47.748;8.960;2024-02-21T06:52:02;7.53;;;5.93;;
3149;SDS011;32503;47.748;8.960;2024-02-21T06:54:30;8.20;;;6.20;;
3149;SDS011;32503;47.748;8.960;2024-02-21T06:56:57;7.37;;;5.53;;
3149;SDS011;32503;47.748;8.960;2024-02-21T06:59:26;13.97;;;4.87;;
3149;SDS011;32503;47.748;8.960;2024-02-21T07:01:53;6.80;;;6.10;;
3149;SDS011;32503;47.748;8.960;2024-02-21T07:04:21;7.10;;;5.93;;
3149;SDS011;32503;47.748;8.960;2024-02-21T07:06:48;9.10;;;5.90;;
3149;SDS011;32503;47.748;8.960;2024-02-21T07:09:16;10.30;;;6.70;;
3149;SDS011;32503;47.748;8.960;2024-02-21T07:11:43;6.07;;;5.40;;
3149;SDS011;32503;47.748;8.960;2024-02-21T07:14:10;7.00;;;6.40;;
3149;SDS011;32503;47.748;8.960;2024-02-21T07:16:38;6.50;;;5.80;;
3149;SDS011;32503;47.748;8.960;2024-02-21T07:19:05;6.53;;;5.90;;
3149;SDS011;32503;47.748;8.960;2024-02-21T07:21:32;11.43;;;6.37;;
3149;SDS011;32503;47.748;8.960;2024-02-21T07:23:59;6.83;;;5.67;;
3149;SDS011;32503;47.748;8.960;2024-02-21T07:26:26;7.00;;;6.40;;
3149;SDS011;32503;47.748;8.960;2024-02-21T07:28:53;8.60;;;6.30;;
3149;SDS011;32503;47.748;8.960;2024-02-21T07:31:20;9.23;;;7.30;;
3149;SDS011;32503;47.748;8.960;2024-02-21T07:33:49;9.57;;;6.90;;
3149;SDS011;32503;47.748;8.960;2024-02-21T07:36:23;6.90;;;6.20;;
3149;SDS011;32503;47.748;8.960;2024-02-21T07:38:55;7.77;;;5.97;;
3149;SDS011;32503;47.748;8.960;2024-02-21T07:41:22;9.97;;;7.57;;
3149;SDS011;32503;47.748;8.960;2024-02-21T07:43:49;13.90;;;10.60;;
3149;SDS011;32503;47.748;8.960;2024-02-21T07:46:17;9.30;;;7.80;;
3149;SDS011;32503;47.748;8.960;2024-02-21T07:48:44;14.23;;;7.00;;
3149;SDS011;32503;47.748;8.960;2024-02-21T07:51:13;9.50;;;7.00;;
3149;SDS011;32503;47.748;8.960;2024-02-21T07:53:41;10.50;;;7.60;;
3149;SDS011;32503;47.748;8.960;2024-02-21T07:56:09;9.33;;;6.90;;
3149;SDS011;32503;47.748;8.960;2024-02-21T07:58:37;8.60;;;6.93;;
3149;SDS011;32503;47.748;8.960;2024-02-21T08:01:04;10.53;;;7.23;;
3149;SDS011;32503;47.748;8.960;2024-02-21T08:03:31;11.10;;;7.47;;
3149;SDS011;32503;47.748;8.960;2024-02-21T08:05:58;9.30;;;8.30;;
3149;SDS011;32503;47.748;8.960;2024-02-21T08:08:26;8.33;;;7.60;;
3149;SDS011;32503;47.748;8.960;2024-02-21T08:10:53;10.17;;;7.90;;
3149;SDS011;32503;47.748;8.960;2024-02-21T08:13:21;10.93;;;7.20;;
3149;SDS011;32503;47.748;8.960;2024-02-21T08:15:48;8.70;;;7.77;;
3149;SDS011;32503;47.748;8.960;2024-02-21T08:18:15;9.53;;;7.47;;
3149;SDS011;32503;47.748;8.960;2024-02-21T08:20:42;11.17;;;7.40;;
3149;SDS011;32503;47.748;8.960;2024-02-21T08:23:09;12.03;;;6.97;;
3149;SDS011;32503;47.748;8.960;2024-02-21T08:25:38;9.50;;;7.83;;
3149;SDS011;32503;47.748;8.960;2024-02-21T08:28:05;11.67;;;7.23;;
3149;SDS011;32503;47.748;8.960;2024-02-21T08:30:32;8.43;;;7.27;;
3149;SDS011;32503;47.748;8.960;2024-02-21T08:33:00;8.03;;;6.80;;
3149;SDS011;32503;47.748;8.960;2024-02-21T08:35:27;9.00;;;6.77;;
3149;SDS011;32503;47.748;8.960;2024-02-21T08:37:54;7.97;;;6.87;;
3149;SDS011;32503;47.748;8.960;2024-02-21T08:40:21;8.40;;;7.07;;
3149;SDS011;32503;47.748;8.960;2024-02-21T08:42:49;9.70;;;8.50;;
3149;SDS011;32503;47.748;8.960;2024-02-21T08:45:16;10.53;;;8.03;;
3149;SDS011;32503;47.748;8.960;2024-02-21T08:47:43;12.13;;;7.43;;
3149;SDS011;32503;47.748;8.960;2024-02-21T08:50:11;8.00;;;7.30;;
3149;SDS011;32503;47.748;8.960;2024-02-21T08:52:38;8.77;;;7.70;;
3149;SDS011;32503;47.748;8.960;2024-02-21T08:55:05;10.30;;;7.90;;
3149;SDS011;32503;47.748;8.960;2024-02-21T08:57:33;7.43;;;6.70;;
3149;SDS011;32503;47.748;8.960;2024-02-21T09:00:04;7.80;;;7.10;;
3149;SDS011;32503;47.748;8.960;2024-02-21T09:02:35;9.03;;;6.90;;
3149;SDS011;32503;47.748;8.960;2024-02-21T09:05:04;6.23;;;5.57;;
3149;SDS011;32503;47.748;8.960;2024-02-21T09:07:31;6.40;;;5.80;;
3149;SDS011;32503;47.748;8.960;2024-02-21T09:09:58;6.73;;;6.10;;
3149;SDS011;32503;47.748;8.960;2024-02-21T09:12:25;9.67;;;6.47;;
3149;SDS011;32503;47.748;8.960;2024-02-21T09:14:53;6.20;;;5.67;;
3149;SDS011;32503;47.748;8.960;2024-02-21T09:17:21;4.97;;;4.57;;
3149;SDS011;32503;47.748;8.960;2024-02-21T09:19:50;8.50;;;5.67;;
3149;SDS011;32503;47.748;8.960;2024-02-21T09:22:17;6.43;;;5.80;;
3149;SDS011;32503;47.748;8.960;2024-02-21T09:24:44;5.77;;;4.73;;
3149;SDS011;32503;47.748;8.960;2024-02-21T09:27:12;6.70;;;4.97;;
3149;SDS011;32503;47.748;8.960;2024-02-21T09:29:39;10.70;;;5.70;;
3149;SDS011;32503;47.748;8.960;2024-02-21T09:32:06;5.37;;;4.97;;
3149;SDS011;32503;47.748;8.960;2024-02-21T09:34:35;5.77;;;4.37;;
3149;SDS011;32503;47.748;8.960;2024-02-21T09:37:02;5.20;;;4.80;;
3149;SDS011;32503;47.748;8.960;2024-02-21T09:39:29;5.00;;;4.53;;
3149;SDS011;32503;47.748;8.960;2024-02-21T09:41:58;4.70;;;4.40;;
3149;SDS011;32503;47.748;8.960;2024-02-21T09:44:33;4.70;;;4.40;;
3149;SDS011;32503;47.748;8.960;2024-02-21T09:47:04;4.50;;;4.20;;
3149;SDS011;32503;47.748;8.960;2024-02-21T09:49:38;6.17;;;4.63;;
3149;SDS011;32503;47.748;8.960;2024-02-21T09:52:08;5.90;;;4.70;;
3149;SDS011;32503;47.748;8.960;2024-02-21T09:54:38;6.97;;;4.93;;
3149;SDS011;32503;47.748;8.960;2024-02-21T09:57:09;6.60;;;5.13;;
3149;SDS011;32503;47.748;8.960;2024-02-21T09:59:36;5.10;;;4.70;;
3149;SDS011;32503;47.748;8.960;2024-02-21T10:02:06;5.63;;;4.93;;
3149;SDS011;32503;47.748;8.960;2024-02-21T10:04:33;5.20;;;4.80;;
3149;SDS011;32503;47.748;8.960;2024-02-21T10:07:02;5.50;;;5.00;;
3149;SDS011;32503;47.748;8.960;2024-02-21T10:09:30;4.43;;;4.13;;
3149;SDS011;32503;47.748;8.960;2024-02-21T10:12:07;4.73;;;4.33;;
3149;SDS011;32503;47.748;8.960;2024-02-21T10:14:35;4.37;;;3.97;;
3149;SDS011;32503;47.748;8.960;2024-02-21T10:17:03;4.33;;;4.13;;
3149;SDS011;32503;47.748;8.960;2024-02-21T10:19:34;6.63;;;4.17;;
3149;SDS011;32503;47.748;8.960;2024-02-21T10:22:03;4.57;;;4.17;;
3149;SDS011;32503;47.748;8.960;2024-02-21T10:24:32;3.60;;;3.40;;
3149;SDS011;32503;47.748;8.960;2024-02-21T10:27:03;3.97;;;3.67;;
3149;SDS011;32503;47.748;8.960;2024-02-21T10:29:33;3.57;;;3.37;;
3149;SDS011;32503;47.748;8.960;2024-02-21T10:32:04;3.50;;;3.30;;
3149;SDS011;32503;47.748;8.960;2024-02-21T10:34:33;3.50;;;3.30;;
3149;SDS011;32503;47.748;8.960;2024-02-21T10:37:03;3.40;;;3.10;;
3149;SDS011;32503;47.748;8.960;2024-02-21T10:39:32;4.53;;;4.20;;
3149;SDS011;32503;47.748;8.960;2024-02-21T10:42:01;3.40;;;3.20;;
3149;SDS011;32503;47.748;8.960;2024-02-21T10:44:30;3.20;;;3.00;;
3149;SDS011;32503;47.748;8.960;2024-02-21T10:46:59;3.20;;;3.00;;
3149;SDS011;32503;47.748;8.960;2024-02-21T10:49:30;4.10;;;3.80;;
3149;SDS011;32503;47.748;8.960;2024-02-21T10:52:00;5.87;;;4.27;;
3149;SDS011;32503;47.748;8.960;2024-02-21T10:54:43;3.83;;;3.63;;
3149;SDS011;32503;47.748;8.960;2024-02-21T10:57:15;3.83;;;3.53;;
3149;SDS011;32503;47.748;8.960;2024-02-21T10:59:44;4.13;;;3.73;;
3149;SDS011;32503;47.748;8.960;2024-02-21T11:02:13;3.30;;;3.10;;
3149;SDS011;32503;47.748;8.960;2024-02-21T11:04:41;3.30;;;3.00;;
3149;SDS011;32503;47.748;8.960;2024-02-21T11:07:10;3.80;;;3.50;;
3149;SDS011;32503;47.748;8.960;2024-02-21T11:09:38;4.10;;;3.80;;
3149;SDS011;32503;47.748;8.960;2024-02-21T11:12:06;3.83;;;3.53;;
3149;SDS011;32503;47.748;8.960;2024-02-21T11:14:33;2.87;;;2.77;;
3149;SDS011;32503;47.748;8.960;2024-02-21T11:17:02;3.20;;;3.10;;
3149;SDS011;32503;47.748;8.960;2024-02-21T11:19:40;3.03;;;2.83;;
3149;SDS011;32503;47.748;8.960;2024-02-21T11:22:13;3.40;;;3.20;;
3149;SDS011;32503;47.748;8.960;2024-02-21T11:24:43;3.00;;;2.80;;
3149;SDS011;32503;47.748;8.960;2024-02-21T11:27:11;3.27;;;3.07;;
3149;SDS011;32503;47.748;8.960;2024-02-21T11:29:39;2.93;;;2.77;;
3149;SDS011;32503;47.748;8.960;2024-02-21T11:32:09;4.90;;;3.40;;
3149;SDS011;32503;47.748;8.960;2024-02-21T11:34:37;2.87;;;2.67;;
3149;SDS011;32503;47.748;8.960;2024-02-21T11:37:12;3.57;;;3.37;;
3149;SDS011;32503;47.748;8.960;2024-02-21T11:39:42;3.03;;;2.83;;
3149;SDS011;32503;47.748;8.960;2024-02-21T11:42:09;3.77;;;3.17;;
3149;SDS011;32503;47.748;8.960;2024-02-21T11:44:37;3.10;;;2.90;;
3149;SDS011;32503;47.748;8.960;2024-02-21T11:47:05;3.73;;;3.10;;
3149;SDS011;32503;47.748;8.960;2024-02-21T11:49:35;3.93;;;3.67;;
3149;SDS011;32503;47.748;8.960;2024-02-21T11:52:04;3.60;;;2.87;;
3149;SDS011;32503;47.748;8.960;2024-02-21T11:54:32;3.10;;;3.00;;
3149;SDS011;32503;47.748;8.960;2024-02-21T11:57:01;2.53;;;2.43;;
3149;SDS011;32503;47.748;8.960;2024-02-21T11:59:29;3.17;;;3.00;;
3149;SDS011;32503;47.748;8.960;2024-02-21T12:01:58;2.80;;;2.60;;
3149;SDS011;32503;47.748;8.960;2024-02-21T12:04:25;2.80;;;2.70;;
3149;SDS011;32503;47.748;8.960;2024-02-21T12:06:53;3.43;;;3.03;;
3149;SDS011;32503;47.748;8.960;2024-02-21T12:09:22;3.80;;;3.60;;
3149;SDS011;32503;47.748;8.960;2024-02-21T12:11:56;3.40;;;3.20;;
3149;SDS011;32503;47.748;8.960;2024-02-21T12:14:27;3.60;;;3.30;;
3149;SDS011;32503;47.748;8.960;2024-02-21T12:16:56;3.10;;;2.90;;
3149;SDS011;32503;47.748;8.960;2024-02-21T12:19:23;4.03;;;3.13;;
3149;SDS011;32503;47.748;8.960;2024-02-21T12:21:50;3.77;;;3.10;;
3149;SDS011;32503;47.748;8.960;2024-02-21T12:24:21;5.47;;;3.40;;
3149;SDS011;32503;47.748;8.960;2024-02-21T12:26:49;4.57;;;3.03;;
3149;SDS011;32503;47.748;8.960;2024-02-21T12:29:17;3.43;;;3.23;;
3149;SDS011;32503;47.748;8.960;2024-02-21T12:31:45;3.30;;;2.77;;
3149;SDS011;32503;47.748;8.960;2024-02-21T12:34:13;3.10;;;2.90;;
3149;SDS011;32503;47.748;8.960;2024-02-21T12:36:41;3.50;;;3.30;;
3149;SDS011;32503;47.748;8.960;2024-02-21T12:39:10;3.50;;;3.20;;
3149;SDS011;32503;47.748;8.960;2024-02-21T12:41:37;2.67;;;2.57;;
3149;SDS011;32503;47.748;8.960;2024-02-21T12:44:05;4.57;;;3.30;;
3149;SDS011;32503;47.748;8.960;2024-02-21T12:46:33;3.33;;;3.07;;
3149;SDS011;32503;47.748;8.960;2024-02-21T12:49:01;2.50;;;2.30;;
3149;SDS011;32503;47.748;8.960;2024-02-21T12:51:29;3.03;;;2.83;;
3149;SDS011;32503;47.748;8.960;2024-02-21T12:53:57;2.93;;;2.80;;
3149;SDS011;32503;47.748;8.960;2024-02-21T12:56:24;2.13;;;2.03;;
3149;SDS011;32503;47.748;8.960;2024-02-21T12:58:52;2.30;;;2.17;;
3149;SDS011;32503;47.748;8.960;2024-02-21T13:01:19;3.07;;;2.77;;
3149;SDS011;32503;47.748;8.960;2024-02-21T13:03:46;2.70;;;2.50;;
3149;SDS011;32503;47.748;8.960;2024-02-21T13:06:15;2.67;;;2.47;;
3149;SDS011;32503;47.748;8.960;2024-02-21T13:08:44;2.73;;;2.63;;
3149;SDS011;32503;47.748;8.960;2024-02-21T13:11:12;2.27;;;1.90;;
3149;SDS011;32503;47.748;8.960;2024-02-21T13:13:39;2.27;;;2.17;;
3149;SDS011;32503;47.748;8.960;2024-02-21T13:16:06;2.30;;;2.20;;
3149;SDS011;32503;47.748;8.960;2024-02-21T13:18:34;2.37;;;2.27;;
3149;SDS011;32503;47.748;8.960;2024-02-21T13:21:03;2.17;;;2.07;;
3149;SDS011;32503;47.748;8.960;2024-02-21T13:23:33;3.07;;;2.30;;
3149;SDS011;32503;47.748;8.960;2024-02-21T13:26:00;2.37;;;2.27;;
3149;SDS011;32503;47.748;8.960;2024-02-21T13:28:27;2.40;;;2.20;;
3149;SDS011;32503;47.748;8.960;2024-02-21T13:30:54;2.40;;;2.13;;
3149;SDS011;32503;47.748;8.960;2024-02-21T13:33:22;3.53;;;2.03;;
3149;SDS011;32503;47.748;8.960;2024-02-21T13:35:49;2.00;;;1.90;;
3149;SDS011;32503;47.748;8.960;2024-02-21T13:38:17;2.27;;;2.03;;
3149;SDS011;32503;47.748;8.960;2024-02-21T13:40:45;3.43;;;2.40;;
3149;SDS011;32503;47.748;8.960;2024-02-21T13:43:12;2.07;;;1.97;;
3149;SDS011;32503;47.748;8.960;2024-02-21T13:45:39;1.90;;;1.80;;
3149;SDS011;32503;47.748;8.960;2024-02-21T13:48:09;1.73;;;1.63;;
3149;SDS011;32503;47.748;8.960;2024-02-21T13:50:39;2.00;;;1.90;;
3149;SDS011;32503;47.748;8.960;2024-02-21T13:53:09;2.53;;;2.33;;
3149;SDS011;32503;47.748;8.960;2024-02-21T13:55:36;1.57;;;1.47;;
3149;SDS011;32503;47.748;8.960;2024-02-21T13:58:07;1.67;;;1.57;;
3149;SDS011;32503;47.748;8.960;2024-02-21T14:00:34;1.93;;;1.40;;
3149;SDS011;32503;47.748;8.960;2024-02-21T14:03:01;1.67;;;1.50;;
3149;SDS011;32503;47.748;8.960;2024-02-21T14:05:28;2.30;;;1.90;;
3149;SDS011;32503;47.748;8.960;2024-02-21T14:07:55;2.00;;;1.90;;
3149;SDS011;32503;47.748;8.960;2024-02-21T14:10:22;1.93;;;1.67;;
3149;SDS011;32503;47.748;8.960;2024-02-21T14:12:49;2.07;;;1.97;;
3149;SDS011;32503;47.748;8.960;2024-02-21T14:15:18;1.53;;;1.43;;
3149;SDS011;32503;47.748;8.960;2024-02-21T14:17:45;1.50;;;1.40;;
3149;SDS011;32503;47.748;8.960;2024-02-21T14:20:12;3.43;;;1.77;;
3149;SDS011;32503;47.748;8.960;2024-02-21T14:22:40;2.50;;;1.60;;
3149;SDS011;32503;47.748;8.960;2024-02-21T14:25:07;2.83;;;1.63;;
3149;SDS011;32503;47.748;8.960;2024-02-21T14:27:34;1.67;;;1.57;;
3149;SDS011;32503;47.748;8.960;2024-02-21T14:30:02;1.57;;;1.47;;
3149;SDS011;32503;47.748;8.960;2024-02-21T14:32:31;1.63;;;1.53;;
3149;SDS011;32503;47.748;8.960;2024-02-21T14:34:58;1.70;;;1.40;;
3149;SDS011;32503;47.748;8.960;2024-02-21T14:37:25;1.97;;;1.87;;
3149;SDS011;32503;47.748;8.960;2024-02-21T14:39:52;1.70;;;1.60;;
3149;SDS011;32503;47.748;8.960;2024-02-21T14:42:19;1.53;;;1.43;;
3149;SDS011;32503;47.748;8.960;2024-02-21T14:44:46;1.50;;;1.40;;
3149;SDS011;32503;47.748;8.960;2024-02-21T14:47:13;2.07;;;1.67;;
3149;SDS011;32503;47.748;8.960;2024-02-21T14:49:42;2.50;;;1.50;;
3149;SDS011;32503;47.748;8.960;2024-02-21T14:52:09;1.73;;;1.63;;
3149;SDS011;32503;47.748;8.960;2024-02-21T14:54:37;1.90;;;1.80;;
3149;SDS011;32503;47.748;8.960;2024-02-21T14:57:06;1.40;;;1.30;;
3149;SDS011;32503;47.748;8.960;2024-02-21T14:59:33;2.00;;;1.90;;
3149;SDS011;32503;47.748;8.960;2024-02-21T15:02:00;2.10;;;2.00;;
3149;SDS011;32503;47.748;8.960;2024-02-21T15:04:27;2.00;;;1.90;;